首页
METAR-TAF:

METAR-TAF

机场 :

Curtis L. Brown Jr. Field

Elizabethtown, 北卡罗来纳州, 美国

纬度: 34-36N, 经度: 078-35W, 海拔: 40米

当前天气观测

该预报发布于19分钟前的13:15 UTC
风速5节,风向西南
温度 27°C
湿度 79%
气压 1016 hPa
能見度: 16.1公里
多云层高于1100英尺

METAR: KEYF 171315Z AUTO 22005KT 10SM BKN011 27/23 A3001 RMK AO2 LTG DSNT S T02670231

时间: 09:34 (13:34 UTC)


TAF: 丢失

超过4000个机场的气象观测和天气预报(METAR&TAF报告)。

可查询的气象台以黄色和红色小点在地图上表示。

将鼠标移到小点上方,可查看气象台名称。

然后点击查看天气观测和预报。

如需切换地图:点击带黑十字的绿色按钮放大地图;点击带横线的绿色按钮缩小地图;或者点击绿色箭头查看邻近地区的地图。


METAR-TAF: